Latest Coastal Weather Observations for Tewantin

IDQ60701

Issued at 2:31 pm EST Saturday 3 December 2016 (issued every 10 minutes, with the page automatically refreshed every 10 minutes)

About coastal observations | Map of coastal stations | Coastal observations for QLD | Marine services | Other Formats
Station Details ID: 040908 Name: TEWANTIN RSL PARK Lat: -26.39 Lon: 153.04 Height: 6.4 m
Data from the previous 72 hours. | See also: Recent months at Tewantin
Date/Time
EST
Temp
°C
Wind Pressure Rain since
9am
mm
Weather Cloud Vis
km
Sea
Height
m
Swell
Dir  Spd
kts
Gust
kts
hPa Trend Height
m
Period
s
Dir
03/02:30pm 27.1 NNE 15 23 1012.2 - 0.0 - - - - - - -
03/02:00pm 26.8 NE 15 25 1012.8 - 0.0 - - - - - - -
03/01:45pm 26.9 NNE 16 26 1013.2 - 0.0 - - - - - - -
03/01:30pm 26.9 NNE 17 25 1013.3 - 0.0 - - - - - - -
03/01:00pm 27.6 NE 11 18 1013.7 - 0.0 - - - - - - -
03/12:30pm 27.2 NE 12 18 1014.0 - 0.0 - - - - - - -
03/12:00pm 27.3 NE 12 18 1014.1 - 0.0 - - - - - - -
03/11:30am 27.2 NE 11 15 1014.5 - 0.0 - - - - - - -
03/11:00am 27.0 NNE 13 18 1014.8 - 0.0 - - - - - - -
03/10:30am 27.4 NNE 11 15 1015.0 - 0.0 - - - - - - -
03/10:00am 26.8 NNE 11 16 1015.3 - 0.0 - - - - - - -
03/09:30am 28.3 NNW 5 8 1015.4 - 0.0 - - - - - - -
03/09:00am 27.5 NW 5 8 1015.6 - 0.0 - - - - - - -
03/08:30am 27.4 NNW 6 8 1015.5 - 0.0 - - - - - - -
03/08:00am 26.6 NNW 5 9 1015.5 - 0.0 - - - - - - -
03/07:30am 25.6 N 7 10 1015.3 - 0.0 - - - - - - -
03/07:00am 25.1 NNW 6 10 1015.0 - 0.0 - - - - - - -
03/06:30am 24.5 NNW 6 9 1014.6 - 0.0 - - - - - - -
03/06:00am 24.6 N 7 11 1014.1 - 0.0 - - - - - - -
03/05:30am 24.7 N 5 7 1013.9 - 0.0 - - - - - - -
03/05:00am 24.7 NNW 6 9 1013.4 - 0.0 - - - - - - -
03/04:30am 24.8 N 7 11 1013.2 - 0.0 - - - - - - -
03/04:00am 24.8 NNW 5 7 1012.9 - 0.0 - - - - - - -
03/03:30am 24.9 NNW 5 9 1012.8 - 0.0 - - - - - - -
03/03:00am 24.9 N 7 11 1012.2 - 0.0 - - - - - - -
03/02:30am 24.9 NNW 7 11 1012.1 - 0.0 - - - - - - -
03/02:00am 24.9 NNW 5 8 1012.4 - 0.0 - - - - - - -
03/01:30am 25.1 NNW 8 13 1012.6 - 0.0 - - - - - - -
03/01:00am 25.0 NNW 7 11 1012.8 - 0.0 - - - - - - -
03/12:30am 25.0 NNW 7 13 1013.2 - 0.0 - - - - - - -
03/12:00am 25.0 NNW 7 11 1013.4 - 0.0 - - - - - - -
 
Date/Time
EST
Temp
°C
Wind Pressure Rain since
9am
mm
Weather Cloud Vis
km
Sea
Height
m
Swell
Dir  Spd
kts
Gust
kts
hPa Trend Height
m
Period
s
Dir
02/11:30pm 25.0 NNW 7 11 1013.7 - 0.0 - - - - - - -
02/11:00pm 24.9 NNW 7 11 1013.6 - 0.0 - - - - - - -
02/10:30pm 25.0 NNW 8 12 1013.6 - 0.0 - - - - - - -
02/10:00pm 24.9 NNW 7 11 1013.5 - 0.0 - - - - - - -
02/09:30pm 24.9 NNW 7 10 1013.4 - 0.0 - - - - - - -
02/09:00pm 25.0 N 8 12 1012.8 - 0.0 - - - - - - -
02/08:30pm 25.1 N 9 13 1012.4 - 0.0 - - - - - - -
02/08:00pm 24.9 NNE 7 9 1011.9 - 0.0 - - - - - - -
02/07:30pm 24.7 NNE 6 8 1011.6 - 0.0 - - - - - - -
02/07:00pm 24.6 NNE 9 12 1011.2 - 0.0 - - - - - - -
02/06:30pm 24.8 NNE 11 15 1010.9 - 0.0 - - - - - - -
02/06:00pm 25.2 NNE 11 17 1010.6 - 0.0 - - - - - - -
02/05:30pm 25.3 NNE 13 18 1010.2 - 0.0 - - - - - - -
02/05:00pm 25.8 NNE 14 21 1009.9 - 0.0 - - - - - - -
02/04:30pm 25.9 NNE 15 22 1009.7 - 0.0 - - - - - - -
02/04:00pm 26.2 NNE 16 25 1009.6 - 0.0 - - - - - - -
02/03:45pm 26.4 NNE 15 25 1009.5 - 0.0 - - - - - - -
02/03:30pm 26.9 NNE 15 22 1009.6 - 0.0 - - - - - - -
02/03:20pm 26.7 NNE 15 26 1009.5 - 0.0 - - - - - - -
02/03:00pm 26.7 NNE 15 22 1009.7 - 0.0 - - - - - - -
02/02:47pm 26.6 NNE 15 25 1009.8 - 0.0 - - - - - - -
02/02:30pm 26.7 NNE 17 25 1010.0 - 0.0 - - - - - - -
02/02:10pm 27.2 NNE 15 27 1010.0 - 0.0 - - - - - - -
02/02:00pm 27.3 NNE 16 21 1010.1 - 0.0 - - - - - - -
02/01:30pm 27.4 NE 13 20 1010.4 - 0.0 - - - - - - -
02/01:00pm 27.1 NNE 16 22 1010.8 - 0.0 - - - - - - -
02/12:30pm 27.1 NNE 15 22 1011.0 - 0.0 - - - - - - -
02/12:00pm 27.5 NNE 12 16 1011.3 - 0.0 - - - - - - -
02/11:30am 27.4 NNE 13 17 - - 0.0 - - - - - - -
02/11:00am 27.9 NE 10 15 1011.8 - 0.0 - - - - - - -
02/10:30am 29.5 N 9 13 1012.2 - 0.0 - - - - - - -
02/10:00am 28.5 NNE 7 11 1012.5 - 0.0 - - - - - - -
02/09:30am 28.2 N 8 12 1012.6 - 0.0 - - - - - - -
02/09:00am 27.3 NNW 7 10 1012.5 - 1.0 - - - - - - -
02/08:30am 26.9 NNW 8 13 1012.4 - 1.0 - - - - - - -
02/08:00am 25.4 NW 4 7 1012.9 - 1.0 - - - - - - -
02/07:30am 24.6 NNW 7 10 1013.0 - 1.0 - - - - - - -
02/07:00am 23.9 NNW 5 9 1012.9 - 1.0 - - - - - - -
02/06:30am 22.5 NNW 7 10 1012.6 - 1.0 - - - - - - -
02/06:00am 21.6 N 4 6 1012.2 - 1.0 - - - - - - -
02/05:30am 20.4 N 4 5 1012.2 - 1.0 - - - - - - -
02/05:00am 20.0 NW 3 5 1012.0 - 1.0 - - - - - - -
02/04:30am 19.8 NNW 3 6 1011.5 - 1.0 - - - - - - -
02/04:00am 19.8 NW 4 5 1011.4 - 0.8 - - - - - - -
02/03:30am 20.0 NNW 4 5 1011.1 - 0.8 - - - - - - -
02/03:00am 19.8 NW 3 4 1010.9 - 0.8 - - - - - - -
02/02:30am 20.2 NNW 3 4 1010.7 - 0.8 - - - - - - -
02/02:00am 20.3 N 1 4 1011.0 - 0.8 - - - - - - -
02/01:30am 19.7 CALM 0 0 1011.1 - 0.8 - - - - - - -
02/01:00am 20.1 W 2 3 1011.3 - 0.8 - - - - - - -
02/12:30am 20.1 CALM 0 0 1011.2 - 0.8 - - - - - - -
02/12:00am 20.5 CALM 0 0 1011.4 - 0.8 - - - - - - -
 
Date/Time
EST
Temp
°C
Wind Pressure Rain since
9am
mm
Weather Cloud Vis
km
Sea
Height
m
Swell
Dir  Spd
kts
Gust
kts
hPa Trend Height
m
Period
s
Dir
01/11:30pm 20.9 SW 2 4 1011.8 - 0.8 - - - - - - -
01/11:00pm 20.6 NNW 3 5 1011.8 - 0.8 - - - - - - -
01/10:30pm 20.5 NW 3 6 1011.9 - 0.8 - - - - - - -
01/10:00pm 21.1 NW 3 4 1011.9 - 0.8 - - - - - - -
01/09:30pm 21.5 NW 5 7 1012.0 - 0.8 - - - - - - -
01/09:00pm 22.7 N 9 13 1011.7 - 0.8 - - - - - - -
01/08:30pm 23.1 N 9 15 1011.5 - 0.8 - - - - - - -
01/08:00pm 22.5 NNE 8 13 1011.4 - 0.8 - - - - - - -
01/07:30pm 23.3 NNW 8 11 1012.4 - 0.8 - - - - - - -
01/07:00pm 24.4 SSE 8 13 1012.2 - 0.4 - - - - - - -
01/06:53pm 24.4 ESE 7 12 1012.2 - 0.4 - - - - - - -
01/06:48pm 24.1 NE 6 11 1010.2 - 0.4 - - - - - - -
01/06:30pm 24.0 N 13 21 1007.9 - 0.4 - - - - - - -
01/06:00pm 23.9 NNE 13 19 1007.8 - 0.4 Recent precip. - - - - - -
01/05:30pm 23.9 N 15 21 1008.4 - 0.4 - - - - - - -
01/05:00pm 24.3 NNE 8 16 1009.5 - 0.0 - - - - - - -
01/04:30pm 24.5 NE 10 17 1008.8 - 0.0 - - - - - - -
01/04:28pm 24.7 NE 11 19 1008.5 - 0.0 - - - - - - -
01/04:10pm 24.7 NNE 16 26 1006.5 - 0.0 - - - - - - -
01/04:00pm 24.8 NNE 16 24 1007.1 - 0.0 - - - - - - -
01/03:31pm 25.3 NNE 15 25 1006.7 - 0.0 - - - - - - -
01/03:30pm 25.3 NNE 16 25 1006.7 - 0.0 - - - - - - -
01/03:00pm 26.4 NNE 15 21 1007.6 - 0.0 - - - - - - -
01/02:32pm 26.3 NNE 15 25 1008.1 - 0.0 - - - - - - -
01/02:30pm 26.2 NNE 14 25 1008.2 - 0.0 - - - - - - -
01/02:00pm 26.3 NE 13 23 1008.7 - 0.0 - - - - - - -
01/01:30pm 26.9 NE 11 17 1009.2 - 0.0 - - - - - - -
01/01:00pm 27.5 NE 11 18 1009.6 - 0.0 - - - - - - -
01/12:30pm 26.4 NE 11 17 1010.2 - 0.0 - - - - - - -
01/12:00pm 26.8 NE 10 14 1010.6 - 0.0 - - - - - - -
01/11:30am 26.7 NNE 10 16 1011.0 - 0.0 - - - - - - -
01/11:00am 27.6 NE 9 13 1011.8 - 0.0 - - - - - - -
01/10:30am 28.3 NNW 5 7 1012.2 - 0.0 - - - - - - -
01/10:00am 27.0 N 9 13 1012.6 - 0.0 - - - - - - -
01/09:30am 26.6 N 8 12 1012.5 - 0.0 - - - - - - -
01/09:00am 26.1 NNW 8 12 1012.9 - 0.8 Rain - - - - - -
01/08:30am 25.6 NNW 8 12 1012.9 - 0.6 - - - - - - -
01/08:00am 24.9 NNW 7 10 1012.6 - 0.6 - - - - - - -
01/07:30am 23.9 NNW 6 10 1012.6 - 0.6 - - - - - - -
01/07:00am 22.9 NNW 3 4 1012.4 - 0.6 - - - - - - -
01/06:30am 21.3 NW 3 6 1012.1 - 0.6 - - - - - - -
01/06:00am 20.1 NW 1 4 1012.4 - 0.6 - - - - - - -
01/05:30am 18.9 WSW 3 4 1012.2 - 0.6 - - - - - - -
01/05:00am 18.3 CALM 0 0 1011.7 - 0.6 - - - - - - -
01/04:30am 17.8 CALM 0 0 1011.6 - 0.6 - - - - - - -
01/04:00am 18.0 NW 2 4 1010.9 - 0.6 - - - - - - -
01/03:30am 18.3 NW 2 4 1011.0 - 0.6 - - - - - - -
01/03:00am 18.8 WSW 1 3 1011.2 - 0.6 - - - - - - -
01/02:30am 18.9 SSW 2 5 1011.6 - 0.6 - - - - - - -
01/02:00am 18.5 CALM 0 3 1011.2 - 0.6 - - - - - - -
01/01:30am 18.9 CALM 0 0 1011.1 - 0.6 - - - - - - -
01/01:00am 18.9 CALM 0 3 1011.3 - 0.6 - - - - - - -
01/12:30am 19.4 NW 2 4 1011.5 - 0.6 - - - - - - -
01/12:00am 19.9 W 3 5 1011.9 - 0.6 - - - - - - -
 
Date/Time
EST
Temp
°C
Wind Pressure Rain since
9am
mm
Weather Cloud Vis
km
Sea
Height
m
Swell
Dir  Spd
kts
Gust
kts
hPa Trend Height
m
Period
s
Dir
30/11:30pm 20.6 WNW 3 5 1012.3 - 0.6 - - - - - - -
30/11:00pm 21.2 SW 2 4 1012.3 - 0.6 - - - - - - -
30/10:30pm 21.3 S 3 5 1012.3 - 0.6 - - - - - - -
30/10:00pm 21.5 SSE 3 6 1012.6 - 0.6 - - - - - - -
30/09:30pm 21.8 SSE 4 7 1012.9 - 0.6 - - - - - - -
30/09:00pm 22.0 WSW 2 4 1012.3 - 0.6 - - - - - - -
30/08:30pm 22.4 NNW 6 11 1011.7 - 0.6 - - - - - - -
30/08:00pm 22.5 NNE 15 23 1010.7 - 0.6 - - - - - - -
30/07:30pm 22.6 NNE 15 23 1011.6 - 0.4 - - - - - - -
30/07:28pm 22.9 NNE 13 23 1011.6 - 0.2 - - - - - - -
30/07:00pm 23.9 SE 6 8 1013.6 - 0.0 - - - - - - -
30/06:30pm 24.1 ENE 5 8 1012.7 - 0.0 - - - - - - -
30/06:00pm 24.0 NE 9 14 1011.0 - 0.0 - - - - - - -
30/05:30pm 24.5 NE 8 15 1010.4 - 0.0 - - - - - - -
30/05:00pm 24.7 NE 8 13 1010.0 - 0.0 - - - - - - -
30/04:30pm 24.4 NNE 8 13 1010.0 - 0.0 - - - - - - -
30/04:00pm 25.0 NNE 10 17 1009.0 - 0.0 - - - - - - -
30/03:30pm 25.3 NNE 12 20 1008.4 - 0.0 - - - - - - -
30/03:00pm 25.8 NE 13 19 1008.4 - 0.0 - - - - - - -

Other Formats:

Comma delimited format used in spreadsheet applications
http://www.bom.gov.au/fwo/IDQ60701/IDQ60701.94570.axf

JavaScript Object Notation format (JSON) in row-major order
http://www.bom.gov.au/fwo/IDQ60701/IDQ60701.94570.json